EDW36W LSZH-MROC
Flight info
| Callsign | EDW36W |
|---|---|
| Flight time | N/A |
| Altitude | 36000 |
| Route | VEBIT T51 LASUN T14 LUMEL T10 TORPA DCT REKLA DCT RLP UL613 ROTSI UM164 TRO/N0485F340 UM729 RESMI UN491 LGL/N0484F360 UN502 JSY DCT LIZAD DCT GAPLI/M085F360 DCT SOMAX/M085F370 DCT 50N020W 50N030W 50N040W 48N050W DCT NICSO/M084F380 DCT JEBBY/M084F400 DCT 40N060W DCT QINCY DCT BOREX DCT MILLE/N0480F400 M595 ERRCA UM595 BOPOL DCT NIBEO DCT ARNAL DCT SPP UP798 COLOR BARRA4C |
| Aircraft | A359/H-SDE2E3GHIJ3J4J5LM1ORWXY/LB1D1 |
Departure
| Time | N/A |
|---|---|
| Airport | Zürich Airport (LSZH) |
Arrival
| Time | 2026-04-27 17:00 |
|---|---|
| Airport | Juan Santamaría International Airport (MROC) |
| Time | Latitude | Longitude | Altitude | Speed | Heading |
|---|---|---|---|---|---|
| 2026-04-27 15:51 | 15.72530 | -80.33563 | 36024 ft | 467 kts | 203° |
| 2026-04-27 15:52 | 15.66439 | -80.35909 | 36015 ft | 467 kts | 203° |
| 2026-04-27 15:52 | 15.60339 | -80.38258 | 36017 ft | 466 kts | 203° |
| 2026-04-27 15:53 | 15.54274 | -80.40592 | 36015 ft | 466 kts | 203° |
| 2026-04-27 15:53 | 15.48174 | -80.42938 | 36017 ft | 466 kts | 203° |
| 2026-04-27 15:54 | 15.42094 | -80.45275 | 36019 ft | 467 kts | 202° |
| 2026-04-27 15:54 | 15.36017 | -80.47610 | 36020 ft | 468 kts | 202° |
| 2026-04-27 15:55 | 15.29884 | -80.49964 | 36019 ft | 468 kts | 202° |
| 2026-04-27 15:55 | 15.23796 | -80.52299 | 36017 ft | 468 kts | 202° |
| 2026-04-27 15:56 | 15.17669 | -80.54648 | 36021 ft | 468 kts | 202° |
| 2026-04-27 15:56 | 15.11564 | -80.56987 | 36010 ft | 468 kts | 202° |
| 2026-04-27 15:57 | 15.05448 | -80.59329 | 36015 ft | 470 kts | 202° |
| 2026-04-27 15:57 | 14.99326 | -80.61673 | 36009 ft | 471 kts | 202° |
| 2026-04-27 15:58 | 14.93284 | -80.64295 | 36004 ft | 470 kts | 206° |
| 2026-04-27 15:58 | 14.87373 | -80.67096 | 36009 ft | 470 kts | 206° |
| 2026-04-27 15:59 | 14.81398 | -80.69889 | 36006 ft | 470 kts | 206° |
| 2026-04-27 15:59 | 14.75393 | -80.72643 | 36012 ft | 470 kts | 206° |
| 2026-04-27 16:00 | 14.69422 | -80.75360 | 36009 ft | 472 kts | 205° |
| 2026-04-27 16:00 | 14.63400 | -80.78096 | 36009 ft | 473 kts | 205° |
| 2026-04-27 16:01 | 14.57384 | -80.80831 | 36005 ft | 473 kts | 205° |
| 2026-04-27 16:01 | 14.51381 | -80.83559 | 36011 ft | 473 kts | 205° |
| 2026-04-27 16:02 | 14.45333 | -80.86307 | 36003 ft | 473 kts | 205° |
| 2026-04-27 16:02 | 14.39330 | -80.89032 | 36002 ft | 473 kts | 205° |
| 2026-04-27 16:03 | 14.33284 | -80.91775 | 36007 ft | 473 kts | 205° |
| 2026-04-27 16:03 | 14.27276 | -80.94500 | 36007 ft | 473 kts | 205° |
| 2026-04-27 16:04 | 14.21275 | -80.97220 | 36006 ft | 473 kts | 205° |
| 2026-04-27 16:04 | 14.15273 | -80.99938 | 36002 ft | 473 kts | 205° |
| 2026-04-27 16:05 | 14.09221 | -81.02678 | 36002 ft | 473 kts | 205° |
| 2026-04-27 16:05 | 14.03212 | -81.05396 | 35996 ft | 473 kts | 205° |
| 2026-04-27 16:06 | 13.97204 | -81.08113 | 35996 ft | 473 kts | 205° |
| 2026-04-27 16:06 | 13.91134 | -81.10856 | 35999 ft | 474 kts | 205° |
| 2026-04-27 16:07 | 13.85107 | -81.13577 | 35999 ft | 473 kts | 205° |
| 2026-04-27 16:07 | 13.79094 | -81.16292 | 35998 ft | 473 kts | 205° |
| 2026-04-27 16:08 | 13.73045 | -81.19020 | 35994 ft | 473 kts | 205° |
| 2026-04-27 16:08 | 13.67028 | -81.21733 | 35994 ft | 473 kts | 205° |
| 2026-04-27 16:09 | 13.61004 | -81.24448 | 35998 ft | 473 kts | 205° |
| 2026-04-27 16:09 | 13.51948 | -81.28526 | 35999 ft | 473 kts | 205° |
| 2026-04-27 16:10 | 13.39897 | -81.33947 | 35996 ft | 474 kts | 205° |
| 2026-04-27 16:11 | 13.30846 | -81.38016 | 36021 ft | 473 kts | 205° |
| 2026-04-27 16:12 | 13.21764 | -81.42093 | 36014 ft | 473 kts | 205° |
| 2026-04-27 16:13 | 13.13737 | -81.45695 | 36004 ft | 473 kts | 205° |
| 2026-04-27 16:13 | 13.03715 | -81.50188 | 35989 ft | 473 kts | 205° |
| 2026-04-27 16:14 | 12.91657 | -81.55589 | 35990 ft | 472 kts | 204° |
| 2026-04-27 16:15 | 12.80636 | -81.60521 | 35991 ft | 472 kts | 204° |
| 2026-04-27 16:16 | 12.68607 | -81.65899 | 35994 ft | 472 kts | 204° |
| 2026-04-27 16:17 | 12.56993 | -81.72068 | 35994 ft | 470 kts | 220° |
| 2026-04-27 16:18 | 12.47798 | -81.81326 | 35993 ft | 471 kts | 226° |
| 2026-04-27 16:19 | 12.43257 | -81.86113 | 35991 ft | 471 kts | 225° |
| 2026-04-27 16:20 | 12.34066 | -81.95700 | 35988 ft | 471 kts | 225° |
| 2026-04-27 16:21 | 12.27194 | -82.02837 | 35989 ft | 471 kts | 225° |
| 2026-04-27 16:22 | 12.18088 | -82.12290 | 35988 ft | 471 kts | 225° |
| 2026-04-27 16:22 | 12.11215 | -82.19419 | 35989 ft | 471 kts | 225° |
| 2026-04-27 16:23 | 12.04306 | -82.26580 | 35986 ft | 471 kts | 225° |
| 2026-04-27 16:24 | 11.99695 | -82.31355 | 35986 ft | 471 kts | 225° |
| 2026-04-27 16:25 | 11.90506 | -82.40865 | 35986 ft | 470 kts | 225° |
| 2026-04-27 16:26 | 11.81330 | -82.50352 | 35985 ft | 469 kts | 225° |
| 2026-04-27 16:27 | 11.72148 | -82.59837 | 35986 ft | 469 kts | 225° |
| 2026-04-27 16:28 | 11.60694 | -82.71654 | 35986 ft | 469 kts | 225° |
| 2026-04-27 16:29 | 11.49175 | -82.83389 | 35983 ft | 467 kts | 225° |
| 2026-04-27 16:30 | 11.39965 | -82.92756 | 35986 ft | 467 kts | 225° |
| 2026-04-27 16:31 | 11.28485 | -83.04422 | 35986 ft | 467 kts | 225° |
| 2026-04-27 16:32 | 11.21574 | -83.11439 | 35980 ft | 467 kts | 225° |
| 2026-04-27 16:33 | 11.14657 | -83.18456 | 35986 ft | 467 kts | 225° |
| 2026-04-27 16:33 | 11.10043 | -83.23134 | 35985 ft | 468 kts | 225° |
| 2026-04-27 16:34 | 11.05449 | -83.27790 | 35986 ft | 468 kts | 225° |
| 2026-04-27 16:34 | 11.00827 | -83.32472 | 35985 ft | 468 kts | 225° |
| 2026-04-27 16:35 | 10.96201 | -83.37156 | 35980 ft | 468 kts | 225° |
| 2026-04-27 16:36 | 10.89286 | -83.44153 | 35983 ft | 468 kts | 225° |
| 2026-04-27 16:36 | 10.84652 | -83.48840 | 35981 ft | 468 kts | 225° |
| 2026-04-27 16:37 | 10.80025 | -83.53518 | 35988 ft | 468 kts | 225° |
| 2026-04-27 16:37 | 10.75513 | -83.58240 | 35982 ft | 469 kts | 231° |
| 2026-04-27 16:38 | 10.72039 | -83.63846 | 35979 ft | 469 kts | 239° |
| 2026-04-27 16:38 | 10.68748 | -83.69580 | 35886 ft | 470 kts | 239° |
| 2026-04-27 16:38 | 10.67097 | -83.72443 | 35559 ft | 466 kts | 239° |
| 2026-04-27 16:39 | 10.65464 | -83.75272 | 35004 ft | 463 kts | 239° |
| 2026-04-27 16:39 | 10.63824 | -83.78107 | 34127 ft | 468 kts | 238° |
| 2026-04-27 16:39 | 10.62159 | -83.80982 | 33163 ft | 472 kts | 238° |
| 2026-04-27 16:39 | 10.60489 | -83.83865 | 32249 ft | 475 kts | 238° |
| 2026-04-27 16:40 | 10.58806 | -83.86770 | 31321 ft | 478 kts | 238° |
| 2026-04-27 16:40 | 10.57122 | -83.89676 | 30667 ft | 476 kts | 238° |
| 2026-04-27 16:40 | 10.55447 | -83.92565 | 30050 ft | 472 kts | 238° |
| 2026-04-27 16:40 | 10.53786 | -83.95430 | 29344 ft | 469 kts | 239° |
| 2026-04-27 16:41 | 10.52153 | -83.98245 | 28700 ft | 465 kts | 239° |
| 2026-04-27 16:41 | 10.50514 | -84.01068 | 28094 ft | 461 kts | 239° |
| 2026-04-27 16:41 | 10.48892 | -84.03863 | 27468 ft | 457 kts | 239° |
| 2026-04-27 16:41 | 10.47282 | -84.06635 | 26840 ft | 454 kts | 239° |
| 2026-04-27 16:42 | 10.45681 | -84.09392 | 26220 ft | 450 kts | 239° |
| 2026-04-27 16:42 | 10.44095 | -84.12123 | 25608 ft | 447 kts | 239° |
| 2026-04-27 16:42 | 10.42516 | -84.14840 | 24990 ft | 445 kts | 239° |
| 2026-04-27 16:42 | 10.40948 | -84.17538 | 24368 ft | 442 kts | 240° |
| 2026-04-27 16:43 | 10.39386 | -84.20225 | 23749 ft | 441 kts | 240° |
| 2026-04-27 16:43 | 10.37832 | -84.22898 | 23054 ft | 438 kts | 240° |
| 2026-04-27 16:43 | 10.36291 | -84.25549 | 22417 ft | 435 kts | 240° |
| 2026-04-27 16:43 | 10.34754 | -84.28191 | 21787 ft | 430 kts | 240° |
| 2026-04-27 16:44 | 10.33259 | -84.30762 | 21162 ft | 427 kts | 240° |
| 2026-04-27 16:44 | 10.31749 | -84.33358 | 20526 ft | 426 kts | 240° |
| 2026-04-27 16:44 | 10.30249 | -84.35934 | 19887 ft | 423 kts | 240° |
| 2026-04-27 16:44 | 10.28754 | -84.38503 | 19235 ft | 421 kts | 239° |
| 2026-04-27 16:45 | 10.27263 | -84.41063 | 18594 ft | 419 kts | 240° |
| 2026-04-27 16:45 | 10.25777 | -84.43614 | 17884 ft | 417 kts | 239° |
| 2026-04-27 16:45 | 10.24304 | -84.46142 | 17149 ft | 415 kts | 239° |
| 2026-04-27 16:45 | 10.22835 | -84.48662 | 16474 ft | 412 kts | 239° |
| 2026-04-27 16:46 | 10.21379 | -84.51146 | 16052 ft | 402 kts | 238° |
| 2026-04-27 16:46 | 10.19785 | -84.53339 | 16007 ft | 384 kts | 228° |
| 2026-04-27 16:46 | 10.17807 | -84.55060 | 15509 ft | 378 kts | 211° |
| 2026-04-27 16:46 | 10.15353 | -84.56153 | 14769 ft | 382 kts | 194° |
| 2026-04-27 16:47 | 10.12767 | -84.56434 | 14489 ft | 370 kts | 177° |
| 2026-04-27 16:47 | 10.10244 | -84.55923 | 13657 ft | 374 kts | 158° |
| 2026-04-27 16:47 | 10.08015 | -84.54531 | 12763 ft | 378 kts | 140° |
| 2026-04-27 16:47 | 10.05998 | -84.52817 | 12129 ft | 377 kts | 138° |
| 2026-04-27 16:48 | 10.04013 | -84.51107 | 11552 ft | 374 kts | 138° |
| 2026-04-27 16:48 | 10.02029 | -84.49405 | 11031 ft | 370 kts | 138° |
| 2026-04-27 16:48 | 10.00108 | -84.47766 | 10888 ft | 353 kts | 138° |
| 2026-04-27 16:49 | 9.96622 | -84.44811 | 10693 ft | 298 kts | 138° |
| 2026-04-27 16:49 | 9.95086 | -84.43508 | 10556 ft | 279 kts | 137° |
| 2026-04-27 16:49 | 9.93691 | -84.42168 | 10436 ft | 273 kts | 129° |
| 2026-04-27 16:49 | 9.92500 | -84.40669 | 10262 ft | 274 kts | 126° |
| 2026-04-27 16:50 | 9.91349 | -84.39127 | 9937 ft | 274 kts | 124° |
| 2026-04-27 16:50 | 9.90193 | -84.37574 | 9609 ft | 282 kts | 125° |
| 2026-04-27 16:50 | 9.89006 | -84.35984 | 9533 ft | 277 kts | 125° |
| 2026-04-27 16:50 | 9.87918 | -84.34464 | 9316 ft | 256 kts | 119° |
| 2026-04-27 16:51 | 9.87335 | -84.32856 | 9168 ft | 233 kts | 95° |
| 2026-04-27 16:51 | 9.87458 | -84.31307 | 9088 ft | 213 kts | 72° |
| 2026-04-27 16:51 | 9.87950 | -84.29959 | 9016 ft | 200 kts | 68° |
| 2026-04-27 16:51 | 9.88443 | -84.28681 | 8861 ft | 192 kts | 69° |
| 2026-04-27 16:52 | 9.88919 | -84.27427 | 8597 ft | 189 kts | 69° |
| 2026-04-27 16:52 | 9.89384 | -84.26194 | 8402 ft | 184 kts | 69° |
| 2026-04-27 16:52 | 9.89836 | -84.24990 | 8215 ft | 182 kts | 69° |
| 2026-04-27 16:52 | 9.90289 | -84.23788 | 8020 ft | 184 kts | 69° |
| 2026-04-27 16:53 | 9.90742 | -84.22586 | 7844 ft | 182 kts | 69° |
| 2026-04-27 16:53 | 9.91180 | -84.21384 | 7719 ft | 181 kts | 69° |
| 2026-04-27 16:53 | 9.91618 | -84.20178 | 7627 ft | 182 kts | 69° |
| 2026-04-27 16:53 | 9.92058 | -84.18970 | 7546 ft | 182 kts | 70° |
| 2026-04-27 16:54 | 9.92488 | -84.17789 | 7439 ft | 174 kts | 69° |
| 2026-04-27 16:54 | 9.92901 | -84.16662 | 7235 ft | 171 kts | 68° |
| 2026-04-27 16:54 | 9.93313 | -84.15548 | 7004 ft | 169 kts | 69° |
| 2026-04-27 16:54 | 9.93722 | -84.14419 | 6748 ft | 171 kts | 69° |
| 2026-04-27 16:55 | 9.94122 | -84.13321 | 6506 ft | 171 kts | 69° |
| 2026-04-27 16:55 | 9.94564 | -84.12222 | 6276 ft | 165 kts | 63° |
| 2026-04-27 16:55 | 9.95191 | -84.11293 | 6050 ft | 155 kts | 47° |
| 2026-04-27 16:55 | 9.96000 | -84.10619 | 5873 ft | 147 kts | 32° |
| 2026-04-27 16:56 | 9.96912 | -84.10211 | 5690 ft | 143 kts | 17° |
| 2026-04-27 16:56 | 9.97898 | -84.10049 | 5481 ft | 143 kts | 2° |
| 2026-04-27 16:56 | 9.98878 | -84.10177 | 5312 ft | 143 kts | 348° |
| 2026-04-27 16:56 | 9.99807 | -84.10559 | 5127 ft | 146 kts | 333° |
| 2026-04-27 16:57 | 10.00630 | -84.11190 | 4929 ft | 150 kts | 319° |
| 2026-04-27 16:57 | 10.01260 | -84.12001 | 4673 ft | 150 kts | 304° |
| 2026-04-27 16:57 | 10.01647 | -84.12992 | 4488 ft | 153 kts | 290° |
| 2026-04-27 16:57 | 10.01814 | -84.14083 | 4396 ft | 160 kts | 272° |
| 2026-04-27 16:58 | 10.01558 | -84.15157 | 4228 ft | 155 kts | 245° |
| 2026-04-27 16:58 | 10.01159 | -84.16171 | 3994 ft | 153 kts | 250° |
| 2026-04-27 16:58 | 10.00779 | -84.17165 | 3751 ft | 148 kts | 250° |
| 2026-04-27 16:58 | 10.00419 | -84.18116 | 3520 ft | 141 kts | 249° |
| 2026-04-27 16:59 | 10.00077 | -84.19037 | 3277 ft | 138 kts | 250° |
| 2026-04-27 16:59 | 9.99748 | -84.19920 | 3091 ft | 131 kts | 250° |
| 2026-04-27 16:59 | 9.99445 | -84.20736 | 3036 ft | 103 kts | 249° |
| 2026-04-27 16:59 | 9.99242 | -84.21280 | 3001 ft | 61 kts | 249° |
| 2026-04-27 17:00 | 9.99118 | -84.21610 | 2985 ft | 15 kts | 249° |
| 2026-04-27 17:00 | 9.99165 | -84.21708 | 2976 ft | 12 kts | 15° |
| 2026-04-27 17:00 | 9.99194 | -84.21669 | 2978 ft | 8 kts | 65° |
| 2026-04-27 17:01 | 9.99220 | -84.21600 | 2981 ft | 13 kts | 70° |
| 2026-04-27 17:01 | 9.99259 | -84.21495 | 2989 ft | 18 kts | 69° |
| 2026-04-27 17:01 | 9.99302 | -84.21380 | 2999 ft | 18 kts | 69° |
| 2026-04-27 17:01 | 9.99347 | -84.21261 | 3007 ft | 19 kts | 69° |
| 2026-04-27 17:02 | 9.99397 | -84.21127 | 3014 ft | 21 kts | 69° |
| 2026-04-27 17:02 | 9.99447 | -84.20993 | 3033 ft | 19 kts | 69° |
| 2026-04-27 17:02 | 9.99492 | -84.20875 | 3042 ft | 18 kts | 69° |
| 2026-04-27 17:02 | 9.99542 | -84.20741 | 3041 ft | 23 kts | 69° |
| 2026-04-27 17:03 | 9.99596 | -84.20592 | 3043 ft | 16 kts | 70° |
| 2026-04-27 17:03 | 9.99625 | -84.20547 | 3044 ft | 5 kts | 21° |
| 2026-04-27 17:03 | 9.99663 | -84.20551 | 3044 ft | 6 kts | 343° |
| 2026-04-27 17:03 | 9.99680 | -84.20558 | 3044 ft | 0 kts | 339° |